Time;durP1;ratioP1;P1;durP2;ratioP2;P2;SDS_P1;SDS_P2;PMS_P1;PMS_P2;Temp;Humidity;BMP_temperature;BMP_pressure;BME280_temperature;BME280_humidity;BME280_pressure;Samples;Min_cycle;Max_cycle;Signal;HPM_P1;HPM_P2
2021/05/19 00:22:49;;;;;;;48.20;27.37;;;;;;;8.23;88.58;98198.98;259096;1111;22793;-70
2021/05/19 00:44:07;;;;;;;47.15;27.60;;;;;;;8.18;89.01;98189.17;258831;1110;22948;-71
2021/05/19 00:51:02;;;;;;;50.07;29.20;;;;;;;8.22;89.21;98190.16;258629;1111;22813;-70
2021/05/19 00:58:08;;;;;;;;;;;;;;;;;;;;;
2021/05/19 01:04:54;;;;;;;;;;;;;;;;;;;;;
2021/05/19 01:11:48;;;;;;;43.03;25.67;;;;;;;7.71;87.50;98194.25;258368;1108;22796;-71
2021/05/19 01:25:51;;;;;;;44.33;24.00;;;;;;;7.52;88.20;98210.16;258245;1111;22823;-70
2021/05/19 01:32:46;;;;;;;;;;;;;;;;;;;;;
2021/05/19 01:39:18;;;;;;;;;;;;;;;7.42;88.52;98220.14;259243;1110;22955;-70
2021/05/19 01:46:04;;;;;;;45.43;26.43;;;;;;;7.41;89.00;98219.33;259258;1103;21602;-71
2021/05/19 01:53:08;;;;;;;49.07;27.30;;;;;;;7.47;89.26;98214.74;258423;1104;22870;-71
2021/05/19 02:13:53;;;;;;;49.73;27.13;;;;;;;7.55;88.67;98211.47;258205;1109;22782;-71
2021/05/19 02:20:40;;;;;;;51.45;27.80;;;;;;;7.58;89.72;98204.78;258926;1105;22901;-71
2021/05/19 02:27:34;;;;;;;;;;;;;;;;;;;;;
2021/05/19 02:34:31;;;;;;;;;;;;;;;;;;;;;
2021/05/19 02:41:03;;;;;;;;;;;;;;;;;;;;;
2021/05/19 02:54:09;;;;;;;;;;;;;;;;;;;;;
2021/05/19 03:08:20;;;;;;;;;;;;;;;;;;;;;
2021/05/19 03:14:59;;;;;;;;;;;;;;;;;;;;;
2021/05/19 03:21:50;;;;;;;;;;;;;;;;;;;;;
2021/05/19 03:28:52;;;;;;;;;;;;;;;;;;;;;
2021/05/19 03:35:38;;;;;;;;;;;;;;;;;;;;;
2021/05/19 03:55:49;;;;;;;68.43;32.78;;;;;;;8.99;86.33;98256.97;259169;1105;22802;-71
2021/05/19 04:44:49;;;;;;;84.17;37.17;;;;;;;9.92;88.36;98285.66;259266;1111;22873;-71
2021/05/19 04:51:25;;;;;;;76.33;36.43;;;;;;;10.32;87.67;98298.55;258960;1103;22806;-71
2021/05/19 04:57:16;;;;;;;68.87;30.83;;;;;;;10.75;87.58;98301.70;259440;1103;22823;-71
2021/05/19 05:03:00;;;;;;;68.55;30.55;;;;;;;11.04;87.44;98297.88;259047;1111;23430;-71
2021/05/19 05:08:47;;;;;;;74.00;30.60;;;;;;;11.23;87.42;98299.59;259061;1103;22861;-71
2021/05/19 05:15:53;;;;;;;65.25;26.90;;;;;;;11.40;86.66;98307.77;258654;1103;22760;-70
2021/05/19 05:22:48;;;;;;;73.70;27.20;;;;;;;11.59;86.85;98312.14;258833;1103;22791;-71
2021/05/19 05:29:51;;;;;;;74.23;26.70;;;;;;;11.83;86.28;98327.13;259473;1108;22809;-70
2021/05/19 05:36:28;;;;;;;63.60;25.47;;;;;;;11.99;86.06;98320.30;257987;1110;22803;-70
2021/05/19 05:56:25;;;;;;;;;;;;;;;;;;;;;
2021/05/19 06:10:22;;;;;;;;;;;;;;;;;;;;;
2021/05/19 06:17:26;;;;;;;;;;;;;;;;;;;;;
2021/05/19 06:24:18;;;;;;;;;;;;;;;13.26;84.13;98340.36;260509;1111;23443;-71
2021/05/19 06:31:13;;;;;;;;;;;;;;;;;;;;;
2021/05/19 06:38:45;;;;;;;28.30;8.00;;;;;;;13.89;83.46;98340.78;259482;1105;22984;-73
2021/05/19 06:59:59;;;;;;;;;;;;;;;;;;;;;
2021/05/19 07:06:58;;;;;;;33.20;10.05;;;;;;;13.77;82.00;98354.14;259530;1103;25872;-72
2021/05/19 07:13:28;;;;;;;;;;;;;;;;;;;;;
2021/05/19 07:27:18;;;;;;;40.50;9.10;;;;;;;14.89;81.77;98352.11;259354;1103;23604;-72
2021/05/19 07:33:52;;;;;;;35.50;9.55;;;;;;;15.11;80.50;98352.94;259292;1111;22806;-73
2021/05/19 07:40:00;;;;;;;36.00;9.50;;;;;;;15.10;80.12;98355.97;259431;1103;22786;-72
2021/05/19 07:46:18;;;;;;;;;;;;;;;;;;;;;
2021/05/19 07:53:06;;;;;;;33.15;9.15;;;;;;;15.68;79.07;98353.41;259378;1103;22802;-72
2021/05/19 08:06:00;;;;;;;;;;;;;;;;;;;;;
2021/05/19 08:12:42;;;;;;;;;;;;;;;;;;;;;
2021/05/19 08:19:45;;;;;;;13.35;4.40;;;;;;;15.66;76.89;98366.47;259341;1111;23002;-71
2021/05/19 08:26:22;;;;;;;16.43;6.33;;;;;;;15.40;76.77;98348.57;259647;1110;22786;-71
2021/05/19 08:38:00;;;;;;;16.40;5.20;;;;;;;15.31;75.36;98345.95;259880;1103;22896;-69
2021/05/19 08:43:44;;;;;;;;;;;;;;;;;;;;;
2021/05/19 08:50:51;;;;;;;;;;;;;;;;;;;;;
2021/05/19 08:56:21;;;;;;;4.50;3.20;;;;;;;13.86;75.50;98363.78;259671;1105;26031;-74
2021/05/19 09:01:53;;;;;;;2.53;1.70;;;;;;;12.79;75.20;98362.45;260031;1103;23016;-72
2021/05/19 09:08:01;;;;;;;;;;;;;;;;;;;;;
2021/05/19 09:14:58;;;;;;;12.97;4.93;;;;;;;11.82;79.13;98371.94;259560;1111;22823;-73
2021/05/19 09:28:20;;;;;;;26.50;7.97;;;;;;;12.30;81.79;98357.08;259736;1110;22845;-73
2021/05/19 09:35:09;;;;;;;27.85;7.20;;;;;;;12.68;82.76;98353.89;259270;1110;23863;-73
2021/05/19 09:48:41;;;;;;;34.50;7.47;;;;;;;14.28;83.88;98343.52;259655;1103;26379;-72
2021/05/19 10:08:07;;;;;;;22.70;6.70;;;;;;;13.40;81.46;98353.68;259851;1103;23461;-70
2021/05/19 10:14:42;;;;;;;22.63;5.27;;;;;;;13.11;80.19;98344.30;259317;1110;22841;-71
2021/05/19 10:28:02;;;;;;;23.10;5.27;;;;;;;12.98;82.12;98338.77;259544;1103;27244;-73
2021/05/19 10:34:43;;;;;;;;;;;;;;;;;;;;;
2021/05/19 10:41:51;;;;;;;22.20;6.10;;;;;;;14.00;81.33;98336.66;259305;1103;22889;-72
2021/05/19 10:48:54;;;;;;;;;;;;;;;;;;;;;
2021/05/19 11:02:34;;;;;;;12.77;4.67;;;;;;;13.71;78.91;98331.17;259318;1110;22958;-73
2021/05/19 11:09:36;;;;;;;10.45;4.75;;;;;;;13.50;79.32;98326.44;259415;1103;26270;-73
2021/05/19 11:16:12;;;;;;;14.13;5.23;;;;;;;13.64;80.22;98323.58;259444;1103;22851;-73
2021/05/19 11:22:35;;;;;;;11.30;5.50;;;;;;;14.25;80.15;98323.41;259777;1106;22842;-73
2021/05/19 11:29:15;;;;;;;;;;;;;;;;;;;;;
2021/05/19 11:43:23;;;;;;;6.75;1.85;;;;;;;14.24;77.55;98339.89;259581;1103;22776;-72
2021/05/19 11:50:15;;;;;;;;;;;;;;;;;;;;;
2021/05/19 12:04:07;;;;;;;;;;;;;;;;;;;;;
2021/05/19 12:11:04;;;;;;;3.80;2.00;;;;;;;14.24;79.70;98308.34;259647;1108;21487;-72
2021/05/19 12:17:47;;;;;;;5.90;1.60;;;;;;;14.70;78.54;98306.73;259127;1103;22913;-73
2021/05/19 12:38:01;;;;;;;;;;;;;;;;;;;;;
2021/05/19 12:44:27;;;;;;;4.15;1.60;;;;;;;16.70;72.16;98306.94;259496;1103;26300;-72
2021/05/19 12:49:43;;;;;;;2.90;1.15;;;;;;;16.84;70.00;98296.53;259499;1110;24552;-72
2021/05/19 12:54:52;;;;;;;6.90;1.50;;;;;;;16.88;69.93;98299.36;259801;1103;22796;-72
2021/05/19 13:01:54;;;;;;;5.55;1.50;;;;;;;16.93;70.26;98297.23;259588;1108;22902;-72
2021/05/19 13:08:49;;;;;;;;;;;;;;;;;;;;;
2021/05/19 13:15:33;;;;;;;3.13;1.40;;;;;;;16.43;68.56;98306.52;260360;1103;26239;-71
2021/05/19 13:22:27;;;;;;;;;;;;;;;;;;;;;
2021/05/19 13:29:13;;;;;;;;;;;;;;;;;;;;;
2021/05/19 13:43:01;;;;;;;;;;;;;;;;;;;;;
2021/05/19 13:48:46;;;;;;;4.70;1.30;;;;;;;16.39;67.49;98292.09;259558;1110;22793;-73
2021/05/19 13:56:02;;;;;;;;;;;;;;;;;;;;;
2021/05/19 14:02:17;;;;;;;1.40;1.07;;;;;;;16.78;66.32;98289.80;259574;1111;22983;-71
2021/05/19 14:16:33;;;;;;;1.25;1.10;;;;;;;16.56;64.47;98291.06;258639;1111;22783;-73
2021/05/19 14:29:27;;;;;;;2.00;1.30;;;;;;;15.89;64.61;98288.56;258966;1111;23234;-74
2021/05/19 15:03:17;;;;;;;;;;;;;;;;;;;;;
2021/05/19 15:09:36;;;;;;;1.90;1.40;;;;;;;16.99;63.38;98313.23;259134;1106;24464;-74
2021/05/19 15:15:34;;;;;;;;;;;;;;;;;;;;;
2021/05/19 15:21:23;;;;;;;2.40;1.40;;;;;;;16.44;63.41;98302.69;259350;1110;22878;-73
2021/05/19 15:26:41;;;;;;;2.80;1.00;;;;;;;16.13;62.79;98308.63;259510;1108;22979;-72
2021/05/19 15:31:53;;;;;;;4.08;1.15;;;;;;;15.81;63.11;98319.96;259190;1103;25967;-73
2021/05/19 15:37:15;;;;;;;1.90;1.15;;;;;;;15.71;63.89;98315.74;259250;1103;27419;-71
2021/05/19 15:42:19;;;;;;;2.50;1.20;;;;;;;15.65;63.52;98294.68;259118;1103;23228;-73
2021/05/19 15:47:26;;;;;;;2.55;1.35;;;;;;;15.72;64.10;98320.03;259130;1110;22861;-72
2021/05/19 15:52:39;;;;;;;3.55;1.30;;;;;;;15.68;64.21;98315.61;259347;1101;27451;-72
2021/05/19 15:58:00;;;;;;;1.45;0.95;;;;;;;15.67;64.45;98312.13;259269;1103;22809;-73
2021/05/19 16:03:58;;;;;;;3.35;1.30;;;;;;;15.61;64.62;98310.74;259290;1103;22866;-73
2021/05/19 16:09:33;;;;;;;1.45;0.90;;;;;;;15.52;64.58;98316.23;259377;1103;22809;-72
2021/05/19 16:14:52;;;;;;;1.40;1.00;;;;;;;15.39;64.71;98315.41;259165;1103;26207;-74
2021/05/19 16:19:56;;;;;;;5.30;1.50;;;;;;;15.29;65.16;98320.41;259185;1110;22914;-73
2021/05/19 16:25:14;;;;;;;2.15;1.10;;;;;;;15.19;65.10;98311.62;259239;1110;22792;-72
2021/05/19 16:30:58;;;;;;;4.40;1.20;;;;;;;15.17;65.22;98319.23;259124;1103;25841;-72
2021/05/19 16:36:19;;;;;;;;;;;;;;;;;;;;;
2021/05/19 16:43:14;;;;;;;1.85;1.05;;;;;;;15.46;65.99;98331.07;259277;1103;22778;-72
2021/05/19 16:48:41;;;;;;;2.53;1.40;;;;;;;15.55;65.65;98331.76;259512;1108;22854;-72
2021/05/19 16:53:49;;;;;;;6.35;2.60;;;;;;;15.64;65.68;98347.91;259274;1110;25144;-74
2021/05/19 16:59:03;;;;;;;;;;;;;;;;;;;;;
2021/05/19 17:04:51;;;;;;;1.95;1.20;;;;;;;15.46;64.96;98343.76;259172;1103;22868;-74
2021/05/19 17:11:04;;;;;;;1.57;0.97;;;;;;;15.31;65.44;98339.77;259414;1108;23015;-72
2021/05/19 17:23:18;;;;;;;0.80;0.80;;;;;;;15.01;64.93;98347.91;259536;1103;22848;-72
2021/05/19 17:28:23;;;;;;;2.85;1.20;;;;;;;14.95;65.19;98346.53;259252;1108;22918;-73
2021/05/19 17:33:27;;;;;;;2.47;1.13;;;;;;;14.81;64.79;98352.17;259482;1103;26273;-72
2021/05/19 17:38:31;;;;;;;2.13;0.80;;;;;;;14.62;64.92;98347.16;259358;1110;22799;-73
2021/05/19 17:43:36;;;;;;;3.85;1.15;;;;;;;14.42;65.41;98352.17;259092;1110;22798;-74
2021/05/19 17:48:40;;;;;;;2.90;1.20;;;;;;;14.22;66.00;98351.00;259154;1110;22799;-72
2021/05/19 17:53:47;;;;;;;3.53;1.43;;;;;;;14.02;66.28;98357.88;259144;1103;22841;-73
2021/05/19 17:58:51;;;;;;;4.10;1.90;;;;;;;13.82;66.90;98360.14;259627;1108;22779;-73
2021/05/19 18:03:57;;;;;;;3.20;1.80;;;;;;;13.64;67.28;98372.02;259130;1103;23061;-73
2021/05/19 18:09:05;;;;;;;2.88;1.35;;;;;;;13.48;67.87;98371.73;259500;1103;22804;-73
2021/05/19 18:14:09;;;;;;;4.73;1.77;;;;;;;13.28;68.11;98367.75;259329;1103;22778;-73
2021/05/19 18:19:18;;;;;;;2.40;1.47;;;;;;;13.11;68.35;98376.56;259727;1107;22806;-72
2021/05/19 18:24:28;;;;;;;5.65;1.80;;;;;;;12.97;68.84;98376.73;259183;1106;22948;-73
2021/05/19 18:29:43;;;;;;;4.70;1.90;;;;;;;12.81;69.70;98387.89;259295;1110;22810;-73
2021/05/19 18:35:36;;;;;;;4.15;1.95;;;;;;;12.65;70.28;98397.52;259265;1103;27313;-73
2021/05/19 18:40:51;;;;;;;4.33;2.53;;;;;;;12.49;70.72;98403.30;259142;1103;25909;-73
2021/05/19 18:46:11;;;;;;;5.90;2.90;;;;;;;12.33;71.10;98400.21;259175;1103;27106;-73
2021/05/19 18:51:22;;;;;;;5.55;3.00;;;;;;;12.19;71.58;98404.89;259188;1103;25893;-72
2021/05/19 18:56:42;;;;;;;5.55;2.50;;;;;;;12.06;72.16;98408.43;259294;1103;24584;-74
2021/05/19 19:01:51;;;;;;;6.50;2.80;;;;;;;11.99;72.65;98422.31;259219;1110;23538;-73
2021/05/19 19:07:22;;;;;;;5.40;2.87;;;;;;;11.88;72.62;98428.97;259076;1110;22791;-73
2021/05/19 19:12:29;;;;;;;7.27;3.30;;;;;;;11.80;73.24;98431.28;259315;1107;22870;-73
2021/05/19 19:18:10;;;;;;;6.37;2.80;;;;;;;11.72;73.41;98437.38;259230;1103;26037;-73
2021/05/19 19:23:30;;;;;;;;;;;;;;;11.60;73.76;98437.93;259159;1110;25110;-73
2021/05/19 19:28:58;;;;;;;4.65;2.70;;;;;;;11.50;74.39;98445.41;259272;1103;24345;-73
2021/05/19 19:34:34;;;;;;;10.85;3.45;;;;;;;11.42;74.45;98453.07;259154;1110;22799;-73
2021/05/19 19:39:52;;;;;;;9.23;3.63;;;;;;;11.36;75.24;98454.29;259931;1110;22786;-73
2021/05/19 19:45:21;;;;;;;9.55;4.50;;;;;;;11.29;75.00;98453.91;259299;1103;25896;-72
2021/05/19 19:51:10;;;;;;;8.40;3.73;;;;;;;11.20;75.50;98447.66;259147;1110;22851;-72
2021/05/19 19:56:49;;;;;;;10.63;4.40;;;;;;;11.08;75.71;98454.32;259614;1110;22963;-73
2021/05/19 20:02:24;;;;;;;9.00;5.00;;;;;;;11.01;76.06;98456.61;259137;1103;22816;-72
2021/05/19 20:07:57;;;;;;;12.20;4.57;;;;;;;10.92;76.07;98447.67;259267;1110;22794;-73
2021/05/19 20:14:23;;;;;;;;;;;;;;;;;;;;;
2021/05/19 20:20:09;;;;;;;6.80;3.63;;;;;;;10.78;76.63;98453.81;259235;1111;24073;-73
2021/05/19 20:26:04;;;;;;;8.97;3.57;;;;;;;10.78;76.97;98458.39;259116;1103;26260;-72
2021/05/19 20:31:33;;;;;;;8.10;3.33;;;;;;;10.75;77.18;98457.09;259235;1103;22830;-73
2021/05/19 20:36:52;;;;;;;14.03;4.13;;;;;;;10.75;77.48;98459.77;259573;1103;22782;-72
2021/05/19 20:42:27;;;;;;;8.03;3.97;;;;;;;10.73;77.28;98461.97;259493;1108;22986;-73
2021/05/19 20:47:51;;;;;;;6.57;3.43;;;;;;;10.72;77.41;98460.38;259114;1110;22952;-74
2021/05/19 20:53:25;;;;;;;;;;;;;;;;;;;;;
2021/05/19 21:06:20;;;;;;;10.27;4.87;;;;;;;10.59;77.48;98469.17;259129;1110;22760;-73
2021/05/19 21:18:47;;;;;;;9.30;4.27;;;;;;;10.60;77.71;98465.41;259075;1105;22858;-72
2021/05/19 21:24:48;;;;;;;;;;;;;;;;;;;;;
2021/05/19 21:30:56;;;;;;;7.80;3.67;;;;;;;10.55;77.88;98458.27;259013;1103;24455;-72
2021/05/19 21:37:06;;;;;;;6.97;3.90;;;;;;;10.48;77.78;98454.38;259294;1103;22786;-73
2021/05/19 21:42:37;;;;;;;11.90;4.97;;;;;;;10.54;78.23;98459.36;259180;1103;22809;-73
2021/05/19 21:48:40;;;;;;;;;;;;;;;;;;;;;
2021/05/19 21:54:20;;;;;;;9.53;4.60;;;;;;;10.50;78.60;98461.03;259194;1103;22783;-73
2021/05/19 22:06:33;;;;;;;6.90;3.17;;;;;;;10.39;78.32;98465.77;259192;1110;24582;-73
2021/05/19 22:12:14;;;;;;;;;;;;;;;;;;;;;
2021/05/19 22:18:38;;;;;;;;;;;;;;;;;;;;;
2021/05/19 22:30:33;;;;;;;5.93;3.60;;;;;;;10.10;79.24;98460.59;258820;1103;27267;-73
2021/05/19 22:36:22;;;;;;;4.38;2.75;;;;;;;10.02;79.28;98464.75;259216;1103;27275;-72
2021/05/19 22:41:54;;;;;;;;;;;;;;;;;;;;;
2021/05/19 22:47:11;;;;;;;4.20;2.30;;;;;;;9.93;79.77;98472.66;259189;1110;22971;-72
2021/05/19 22:52:56;;;;;;;9.93;3.13;;;;;;;9.90;79.87;98469.75;259128;1103;24189;-73
2021/05/19 23:05:27;;;;;;;6.63;2.93;;;;;;;9.82;80.29;98475.76;259051;1103;22775;-72
2021/05/19 23:11:10;;;;;;;9.75;4.85;;;;;;;9.81;80.30;98474.16;259215;1105;22911;-73
2021/05/19 23:17:33;;;;;;;;;;;;;;;;;;;;;
2021/05/19 23:24:02;;;;;;;9.33;4.37;;;;;;;9.74;80.79;98463.84;258826;1105;22805;-72
2021/05/19 23:29:29;;;;;;;7.53;3.57;;;;;;;9.72;80.92;98463.33;259111;1105;22997;-72
2021/05/19 23:41:43;;;;;;;7.70;3.60;;;;;;;9.61;80.86;98480.61;259010;1103;26606;-73
2021/05/19 23:47:23;;;;;;;8.83;4.43;;;;;;;9.52;80.67;98475.91;259175;1103;22783;-73
2021/05/19 23:53:10;;;;;;;9.80;4.53;;;;;;;9.47;81.10;98477.85;259145;1104;22775;-72
2021/05/19 23:59:12;;;;;;;9.98;4.63;;;;;;;9.43;80.92;98477.65;259117;1110;22949;-72
